sensor_id;sensor_type;location;lat;lon;timestamp;P1;durP1;ratioP1;P2;durP2;ratioP2
72517;SDS011;60540;51.178;6.738;2023-08-30T00:01:40;12.93;;;10.02;;
72517;SDS011;60540;51.178;6.738;2023-08-30T00:04:06;14.52;;;10.32;;
72517;SDS011;60540;51.178;6.738;2023-08-30T00:06:32;16.17;;;11.48;;
72517;SDS011;60540;51.178;6.738;2023-08-30T00:08:58;16.85;;;10.65;;
72517;SDS011;60540;51.178;6.738;2023-08-30T00:11:24;14.40;;;9.77;;
72517;SDS011;60540;51.178;6.738;2023-08-30T00:13:50;14.70;;;10.32;;
72517;SDS011;60540;51.178;6.738;2023-08-30T00:16:15;16.30;;;11.10;;
72517;SDS011;60540;51.178;6.738;2023-08-30T00:18:42;15.88;;;11.77;;
72517;SDS011;60540;51.178;6.738;2023-08-30T00:21:09;16.63;;;9.68;;
72517;SDS011;60540;51.178;6.738;2023-08-30T00:23:35;14.82;;;10.57;;
72517;SDS011;60540;51.178;6.738;2023-08-30T00:26:01;19.08;;;11.10;;
72517;SDS011;60540;51.178;6.738;2023-08-30T00:28:27;15.55;;;10.13;;
72517;SDS011;60540;51.178;6.738;2023-08-30T00:30:53;15.90;;;9.20;;
72517;SDS011;60540;51.178;6.738;2023-08-30T00:33:20;17.52;;;10.13;;
72517;SDS011;60540;51.178;6.738;2023-08-30T00:35:46;14.43;;;10.80;;
72517;SDS011;60540;51.178;6.738;2023-08-30T00:38:12;15.27;;;9.55;;
72517;SDS011;60540;51.178;6.738;2023-08-30T00:40:38;16.02;;;10.80;;
72517;SDS011;60540;51.178;6.738;2023-08-30T00:43:05;13.60;;;9.38;;
72517;SDS011;60540;51.178;6.738;2023-08-30T00:45:32;14.68;;;10.05;;
72517;SDS011;60540;51.178;6.738;2023-08-30T00:50:23;14.38;;;10.43;;
72517;SDS011;60540;51.178;6.738;2023-08-30T00:52:49;17.60;;;10.27;;
72517;SDS011;60540;51.178;6.738;2023-08-30T00:55:15;17.88;;;10.73;;
72517;SDS011;60540;51.178;6.738;2023-08-30T00:57:41;14.98;;;10.18;;
72517;SDS011;60540;51.178;6.738;2023-08-30T01:00:07;17.98;;;10.20;;
72517;SDS011;60540;51.178;6.738;2023-08-30T01:02:34;17.52;;;10.15;;
72517;SDS011;60540;51.178;6.738;2023-08-30T01:05:02;15.90;;;10.20;;
72517;SDS011;60540;51.178;6.738;2023-08-30T01:07:28;17.67;;;10.27;;
72517;SDS011;60540;51.178;6.738;2023-08-30T01:09:54;14.65;;;10.27;;
72517;SDS011;60540;51.178;6.738;2023-08-30T01:12:20;15.07;;;10.18;;
72517;SDS011;60540;51.178;6.738;2023-08-30T01:17:22;16.83;;;10.45;;
72517;SDS011;60540;51.178;6.738;2023-08-30T01:22:16;14.05;;;9.85;;
72517;SDS011;60540;51.178;6.738;2023-08-30T01:24:56;17.02;;;9.77;;
72517;SDS011;60540;51.178;6.738;2023-08-30T01:27:29;16.63;;;10.63;;
72517;SDS011;60540;51.178;6.738;2023-08-30T01:29:57;16.67;;;10.70;;
72517;SDS011;60540;51.178;6.738;2023-08-30T01:32:23;16.08;;;10.30;;
72517;SDS011;60540;51.178;6.738;2023-08-30T01:34:51;17.05;;;9.68;;
72517;SDS011;60540;51.178;6.738;2023-08-30T01:37:17;14.95;;;10.07;;
72517;SDS011;60540;51.178;6.738;2023-08-30T01:39:43;14.48;;;9.20;;
72517;SDS011;60540;51.178;6.738;2023-08-30T01:42:10;13.45;;;8.85;;
72517;SDS011;60540;51.178;6.738;2023-08-30T01:44:35;15.10;;;9.10;;
72517;SDS011;60540;51.178;6.738;2023-08-30T01:47:03;14.50;;;9.90;;
72517;SDS011;60540;51.178;6.738;2023-08-30T01:49:29;14.88;;;9.75;;
72517;SDS011;60540;51.178;6.738;2023-08-30T01:51:57;13.27;;;8.52;;
72517;SDS011;60540;51.178;6.738;2023-08-30T01:54:23;13.60;;;8.40;;
72517;SDS011;60540;51.178;6.738;2023-08-30T01:56:49;14.80;;;9.60;;
72517;SDS011;60540;51.178;6.738;2023-08-30T01:59:15;16.10;;;10.77;;
72517;SDS011;60540;51.178;6.738;2023-08-30T02:01:41;13.27;;;9.13;;
72517;SDS011;60540;51.178;6.738;2023-08-30T02:04:06;14.43;;;9.98;;
72517;SDS011;60540;51.178;6.738;2023-08-30T02:06:38;16.60;;;9.95;;
72517;SDS011;60540;51.178;6.738;2023-08-30T02:09:19;14.27;;;10.15;;
72517;SDS011;60540;51.178;6.738;2023-08-30T02:11:48;15.80;;;9.88;;
72517;SDS011;60540;51.178;6.738;2023-08-30T02:14:15;15.73;;;8.90;;
72517;SDS011;60540;51.178;6.738;2023-08-30T02:16:44;16.77;;;11.13;;
72517;SDS011;60540;51.178;6.738;2023-08-30T02:19:11;17.45;;;10.40;;
72517;SDS011;60540;51.178;6.738;2023-08-30T02:21:39;14.90;;;9.38;;
72517;SDS011;60540;51.178;6.738;2023-08-30T02:24:05;16.23;;;8.85;;
72517;SDS011;60540;51.178;6.738;2023-08-30T02:26:31;13.13;;;8.82;;
72517;SDS011;60540;51.178;6.738;2023-08-30T02:28:57;14.95;;;9.48;;
72517;SDS011;60540;51.178;6.738;2023-08-30T02:31:23;13.25;;;8.30;;
72517;SDS011;60540;51.178;6.738;2023-08-30T02:33:48;12.27;;;8.07;;
72517;SDS011;60540;51.178;6.738;2023-08-30T02:36:14;14.27;;;8.38;;
72517;SDS011;60540;51.178;6.738;2023-08-30T02:38:40;13.88;;;9.35;;
72517;SDS011;60540;51.178;6.738;2023-08-30T02:41:05;10.75;;;7.65;;
72517;SDS011;60540;51.178;6.738;2023-08-30T02:43:32;14.07;;;8.65;;
72517;SDS011;60540;51.178;6.738;2023-08-30T02:45:58;12.80;;;8.52;;
72517;SDS011;60540;51.178;6.738;2023-08-30T02:48:24;12.13;;;7.95;;
72517;SDS011;60540;51.178;6.738;2023-08-30T02:50:49;12.20;;;7.82;;
72517;SDS011;60540;51.178;6.738;2023-08-30T02:53:15;13.77;;;7.88;;
72517;SDS011;60540;51.178;6.738;2023-08-30T02:55:41;11.02;;;8.20;;
72517;SDS011;60540;51.178;6.738;2023-08-30T02:58:06;11.90;;;7.78;;
72517;SDS011;60540;51.178;6.738;2023-08-30T03:00:32;14.23;;;7.72;;
72517;SDS011;60540;51.178;6.738;2023-08-30T03:02:59;11.85;;;8.65;;
72517;SDS011;60540;51.178;6.738;2023-08-30T03:05:25;11.48;;;7.78;;
72517;SDS011;60540;51.178;6.738;2023-08-30T03:07:52;13.95;;;8.77;;
72517;SDS011;60540;51.178;6.738;2023-08-30T03:10:18;10.95;;;7.65;;
72517;SDS011;60540;51.178;6.738;2023-08-30T03:12:44;11.82;;;7.50;;
72517;SDS011;60540;51.178;6.738;2023-08-30T03:15:10;13.05;;;8.68;;
72517;SDS011;60540;51.178;6.738;2023-08-30T03:17:36;12.00;;;8.50;;
72517;SDS011;60540;51.178;6.738;2023-08-30T03:20:02;10.98;;;7.95;;
72517;SDS011;60540;51.178;6.738;2023-08-30T03:22:29;12.50;;;7.95;;
72517;SDS011;60540;51.178;6.738;2023-08-30T03:24:56;11.98;;;7.90;;
72517;SDS011;60540;51.178;6.738;2023-08-30T03:27:22;12.80;;;8.20;;
72517;SDS011;60540;51.178;6.738;2023-08-30T03:29:47;13.65;;;7.85;;
72517;SDS011;60540;51.178;6.738;2023-08-30T03:32:14;12.88;;;7.47;;
72517;SDS011;60540;51.178;6.738;2023-08-30T03:34:43;11.82;;;7.82;;
72517;SDS011;60540;51.178;6.738;2023-08-30T03:37:09;11.65;;;7.82;;
72517;SDS011;60540;51.178;6.738;2023-08-30T03:39:35;14.48;;;7.65;;
72517;SDS011;60540;51.178;6.738;2023-08-30T03:42:01;10.77;;;7.68;;
72517;SDS011;60540;51.178;6.738;2023-08-30T03:44:27;10.52;;;7.38;;
72517;SDS011;60540;51.178;6.738;2023-08-30T03:46:52;12.93;;;7.32;;
72517;SDS011;60540;51.178;6.738;2023-08-30T03:49:19;11.75;;;7.80;;
72517;SDS011;60540;51.178;6.738;2023-08-30T03:51:44;11.43;;;7.68;;
72517;SDS011;60540;51.178;6.738;2023-08-30T03:54:10;13.18;;;7.95;;
72517;SDS011;60540;51.178;6.738;2023-08-30T03:56:41;10.43;;;7.78;;
72517;SDS011;60540;51.178;6.738;2023-08-30T03:59:07;11.98;;;7.78;;
72517;SDS011;60540;51.178;6.738;2023-08-30T04:01:33;11.68;;;7.47;;
72517;SDS011;60540;51.178;6.738;2023-08-30T04:03:59;10.32;;;7.15;;
72517;SDS011;60540;51.178;6.738;2023-08-30T04:06:24;11.50;;;7.82;;
72517;SDS011;60540;51.178;6.738;2023-08-30T04:08:50;11.93;;;7.88;;
72517;SDS011;60540;51.178;6.738;2023-08-30T04:11:16;12.65;;;8.77;;
72517;SDS011;60540;51.178;6.738;2023-08-30T04:13:42;11.45;;;7.50;;
72517;SDS011;60540;51.178;6.738;2023-08-30T04:16:07;12.25;;;7.40;;
72517;SDS011;60540;51.178;6.738;2023-08-30T04:18:33;11.27;;;7.88;;
72517;SDS011;60540;51.178;6.738;2023-08-30T04:20:59;12.32;;;7.70;;
72517;SDS011;60540;51.178;6.738;2023-08-30T04:23:28;11.27;;;8.43;;
72517;SDS011;60540;51.178;6.738;2023-08-30T04:28:20;13.55;;;9.27;;
72517;SDS011;60540;51.178;6.738;2023-08-30T04:30:46;13.15;;;9.18;;
72517;SDS011;60540;51.178;6.738;2023-08-30T04:33:11;14.30;;;9.48;;
72517;SDS011;60540;51.178;6.738;2023-08-30T04:35:37;13.07;;;9.25;;
72517;SDS011;60540;51.178;6.738;2023-08-30T04:38:04;13.63;;;9.30;;
72517;SDS011;60540;51.178;6.738;2023-08-30T04:40:29;12.68;;;8.65;;
72517;SDS011;60540;51.178;6.738;2023-08-30T04:42:57;13.25;;;8.63;;
72517;SDS011;60540;51.178;6.738;2023-08-30T04:45:23;13.35;;;9.63;;
72517;SDS011;60540;51.178;6.738;2023-08-30T04:47:49;17.00;;;10.45;;
72517;SDS011;60540;51.178;6.738;2023-08-30T04:50:15;18.33;;;10.32;;
72517;SDS011;60540;51.178;6.738;2023-08-30T04:52:42;16.80;;;10.85;;
72517;SDS011;60540;51.178;6.738;2023-08-30T04:55:08;17.83;;;12.57;;
72517;SDS011;60540;51.178;6.738;2023-08-30T04:57:34;15.98;;;11.40;;
72517;SDS011;60540;51.178;6.738;2023-08-30T05:00:00;18.17;;;11.73;;
72517;SDS011;60540;51.178;6.738;2023-08-30T05:02:30;20.42;;;12.40;;
72517;SDS011;60540;51.178;6.738;2023-08-30T05:04:56;17.75;;;11.05;;
72517;SDS011;60540;51.178;6.738;2023-08-30T05:07:22;17.45;;;11.88;;
72517;SDS011;60540;51.178;6.738;2023-08-30T05:09:47;18.63;;;11.88;;
72517;SDS011;60540;51.178;6.738;2023-08-30T05:12:13;16.48;;;10.55;;
72517;SDS011;60540;51.178;6.738;2023-08-30T05:14:39;15.60;;;10.02;;
72517;SDS011;60540;51.178;6.738;2023-08-30T05:17:06;16.52;;;10.63;;
72517;SDS011;60540;51.178;6.738;2023-08-30T05:19:32;14.48;;;9.98;;
72517;SDS011;60540;51.178;6.738;2023-08-30T05:21:58;17.88;;;10.93;;
72517;SDS011;60540;51.178;6.738;2023-08-30T05:24:24;17.20;;;10.32;;
72517;SDS011;60540;51.178;6.738;2023-08-30T05:26:51;18.00;;;11.52;;
72517;SDS011;60540;51.178;6.738;2023-08-30T05:29:17;17.48;;;10.77;;
72517;SDS011;60540;51.178;6.738;2023-08-30T05:31:43;17.42;;;11.30;;
72517;SDS011;60540;51.178;6.738;2023-08-30T05:34:09;18.70;;;11.57;;
72517;SDS011;60540;51.178;6.738;2023-08-30T05:36:35;17.05;;;11.15;;
72517;SDS011;60540;51.178;6.738;2023-08-30T05:39:01;18.80;;;10.85;;
72517;SDS011;60540;51.178;6.738;2023-08-30T05:41:29;14.63;;;9.75;;
72517;SDS011;60540;51.178;6.738;2023-08-30T05:43:55;16.70;;;10.70;;
72517;SDS011;60540;51.178;6.738;2023-08-30T05:46:21;13.85;;;9.00;;
72517;SDS011;60540;51.178;6.738;2023-08-30T05:48:46;13.48;;;9.45;;
72517;SDS011;60540;51.178;6.738;2023-08-30T05:51:12;14.77;;;9.38;;
72517;SDS011;60540;51.178;6.738;2023-08-30T05:53:38;12.00;;;8.70;;
72517;SDS011;60540;51.178;6.738;2023-08-30T05:56:04;13.65;;;8.82;;
72517;SDS011;60540;51.178;6.738;2023-08-30T05:58:29;19.52;;;9.73;;
72517;SDS011;60540;51.178;6.738;2023-08-30T06:00:56;12.55;;;8.57;;
72517;SDS011;60540;51.178;6.738;2023-08-30T06:03:22;13.63;;;8.90;;
72517;SDS011;60540;51.178;6.738;2023-08-30T06:05:48;13.88;;;9.02;;
72517;SDS011;60540;51.178;6.738;2023-08-30T06:08:14;13.40;;;8.63;;
72517;SDS011;60540;51.178;6.738;2023-08-30T06:10:40;12.85;;;8.00;;
72517;SDS011;60540;51.178;6.738;2023-08-30T06:13:06;13.25;;;8.43;;
72517;SDS011;60540;51.178;6.738;2023-08-30T06:15:32;11.00;;;7.00;;
72517;SDS011;60540;51.178;6.738;2023-08-30T06:17:58;11.48;;;7.50;;
72517;SDS011;60540;51.178;6.738;2023-08-30T06:20:24;11.32;;;7.32;;
72517;SDS011;60540;51.178;6.738;2023-08-30T06:22:50;11.73;;;6.70;;
72517;SDS011;60540;51.178;6.738;2023-08-30T06:25:16;11.32;;;7.32;;
72517;SDS011;60540;51.178;6.738;2023-08-30T06:27:42;10.63;;;7.72;;
72517;SDS011;60540;51.178;6.738;2023-08-30T06:30:09;10.95;;;6.50;;
72517;SDS011;60540;51.178;6.738;2023-08-30T06:32:36;11.10;;;6.20;;
72517;SDS011;60540;51.178;6.738;2023-08-30T06:35:02;10.05;;;7.47;;
72517;SDS011;60540;51.178;6.738;2023-08-30T06:37:29;14.15;;;7.65;;
72517;SDS011;60540;51.178;6.738;2023-08-30T06:39:55;9.43;;;6.55;;
72517;SDS011;60540;51.178;6.738;2023-08-30T06:42:20;12.52;;;6.93;;
72517;SDS011;60540;51.178;6.738;2023-08-30T06:44:46;12.13;;;7.43;;
72517;SDS011;60540;51.178;6.738;2023-08-30T06:47:12;10.65;;;7.32;;
72517;SDS011;60540;51.178;6.738;2023-08-30T06:49:38;11.48;;;7.40;;
72517;SDS011;60540;51.178;6.738;2023-08-30T06:52:03;12.90;;;6.65;;
72517;SDS011;60540;51.178;6.738;2023-08-30T06:54:32;10.05;;;5.97;;
72517;SDS011;60540;51.178;6.738;2023-08-30T06:56:59;11.05;;;7.30;;
72517;SDS011;60540;51.178;6.738;2023-08-30T06:59:26;12.00;;;6.75;;
72517;SDS011;60540;51.178;6.738;2023-08-30T07:01:52;10.65;;;7.55;;
72517;SDS011;60540;51.178;6.738;2023-08-30T07:04:18;8.10;;;5.65;;
72517;SDS011;60540;51.178;6.738;2023-08-30T07:06:44;10.80;;;5.93;;
72517;SDS011;60540;51.178;6.738;2023-08-30T07:09:10;8.65;;;5.93;;
72517;SDS011;60540;51.178;6.738;2023-08-30T07:11:37;9.90;;;6.28;;
72517;SDS011;60540;51.178;6.738;2023-08-30T07:16:29;7.45;;;4.90;;
72517;SDS011;60540;51.178;6.738;2023-08-30T07:18:57;8.90;;;5.47;;
72517;SDS011;60540;51.178;6.738;2023-08-30T07:21:23;11.95;;;6.03;;
72517;SDS011;60540;51.178;6.738;2023-08-30T07:23:49;8.20;;;5.32;;
72517;SDS011;60540;51.178;6.738;2023-08-30T07:26:15;8.25;;;5.43;;
72517;SDS011;60540;51.178;6.738;2023-08-30T07:28:41;11.50;;;6.97;;
72517;SDS011;60540;51.178;6.738;2023-08-30T07:31:07;9.15;;;5.82;;
72517;SDS011;60540;51.178;6.738;2023-08-30T07:33:33;8.20;;;5.40;;
72517;SDS011;60540;51.178;6.738;2023-08-30T07:35:58;8.43;;;5.30;;
72517;SDS011;60540;51.178;6.738;2023-08-30T07:38:24;9.70;;;5.55;;
72517;SDS011;60540;51.178;6.738;2023-08-30T07:40:50;9.20;;;5.25;;
72517;SDS011;60540;51.178;6.738;2023-08-30T07:43:16;8.25;;;5.22;;
72517;SDS011;60540;51.178;6.738;2023-08-30T07:45:41;8.35;;;4.70;;
72517;SDS011;60540;51.178;6.738;2023-08-30T07:48:07;8.85;;;5.70;;
72517;SDS011;60540;51.178;6.738;2023-08-30T07:50:33;7.07;;;4.93;;
72517;SDS011;60540;51.178;6.738;2023-08-30T07:52:58;8.63;;;5.38;;
72517;SDS011;60540;51.178;6.738;2023-08-30T07:55:24;7.07;;;4.22;;
72517;SDS011;60540;51.178;6.738;2023-08-30T07:57:50;7.82;;;4.95;;
72517;SDS011;60540;51.178;6.738;2023-08-30T08:00:16;6.30;;;4.38;;
72517;SDS011;60540;51.178;6.738;2023-08-30T08:02:42;7.03;;;4.53;;
72517;SDS011;60540;51.178;6.738;2023-08-30T08:05:08;7.03;;;4.07;;
72517;SDS011;60540;51.178;6.738;2023-08-30T08:07:35;6.22;;;4.10;;
72517;SDS011;60540;51.178;6.738;2023-08-30T08:10:03;10.43;;;5.15;;
72517;SDS011;60540;51.178;6.738;2023-08-30T08:12:32;6.00;;;3.80;;
72517;SDS011;60540;51.178;6.738;2023-08-30T08:14:58;8.13;;;4.35;;
72517;SDS011;60540;51.178;6.738;2023-08-30T08:17:24;7.13;;;4.15;;
72517;SDS011;60540;51.178;6.738;2023-08-30T08:19:49;6.57;;;3.95;;
72517;SDS011;60540;51.178;6.738;2023-08-30T08:22:15;6.18;;;3.97;;
72517;SDS011;60540;51.178;6.738;2023-08-30T08:24:41;5.57;;;4.05;;
72517;SDS011;60540;51.178;6.738;2023-08-30T08:27:09;7.10;;;3.83;;
72517;SDS011;60540;51.178;6.738;2023-08-30T08:29:34;7.72;;;4.10;;
72517;SDS011;60540;51.178;6.738;2023-08-30T08:32:00;8.93;;;4.28;;
72517;SDS011;60540;51.178;6.738;2023-08-30T08:34:26;8.25;;;4.38;;
72517;SDS011;60540;51.178;6.738;2023-08-30T08:36:52;6.75;;;3.50;;
72517;SDS011;60540;51.178;6.738;2023-08-30T08:39:18;6.25;;;3.45;;
72517;SDS011;60540;51.178;6.738;2023-08-30T08:41:44;7.60;;;3.60;;
72517;SDS011;60540;51.178;6.738;2023-08-30T08:44:10;7.88;;;3.97;;
72517;SDS011;60540;51.178;6.738;2023-08-30T08:46:38;5.93;;;3.25;;
72517;SDS011;60540;51.178;6.738;2023-08-30T08:49:07;8.57;;;4.00;;
72517;SDS011;60540;51.178;6.738;2023-08-30T08:54:03;5.63;;;2.95;;
72517;SDS011;60540;51.178;6.738;2023-08-30T08:56:30;5.95;;;2.90;;
72517;SDS011;60540;51.178;6.738;2023-08-30T08:58:58;12.18;;;4.00;;
72517;SDS011;60540;51.178;6.738;2023-08-30T09:01:24;6.53;;;3.03;;
72517;SDS011;60540;51.178;6.738;2023-08-30T09:03:50;8.32;;;3.42;;
72517;SDS011;60540;51.178;6.738;2023-08-30T09:06:16;4.75;;;2.55;;
72517;SDS011;60540;51.178;6.738;2023-08-30T09:11:08;6.15;;;2.60;;
72517;SDS011;60540;51.178;6.738;2023-08-30T09:13:34;6.50;;;2.92;;
72517;SDS011;60540;51.178;6.738;2023-08-30T09:16:00;8.13;;;3.13;;
72517;SDS011;60540;51.178;6.738;2023-08-30T09:18:28;6.40;;;2.72;;
72517;SDS011;60540;51.178;6.738;2023-08-30T09:21:09;5.55;;;3.08;;
72517;SDS011;60540;51.178;6.738;2023-08-30T09:23:35;7.93;;;3.72;;
72517;SDS011;60540;51.178;6.738;2023-08-30T09:26:02;7.30;;;2.97;;
72517;SDS011;60540;51.178;6.738;2023-08-30T09:28:29;6.07;;;3.67;;
72517;SDS011;60540;51.178;6.738;2023-08-30T09:30:57;5.82;;;2.78;;
72517;SDS011;60540;51.178;6.738;2023-08-30T09:33:29;6.15;;;2.80;;
72517;SDS011;60540;51.178;6.738;2023-08-30T09:35:57;5.47;;;2.80;;
72517;SDS011;60540;51.178;6.738;2023-08-30T09:38:23;7.95;;;2.72;;
72517;SDS011;60540;51.178;6.738;2023-08-30T09:40:49;6.40;;;2.75;;
72517;SDS011;60540;51.178;6.738;2023-08-30T09:43:18;7.45;;;2.60;;
72517;SDS011;60540;51.178;6.738;2023-08-30T09:45:47;5.55;;;2.90;;
72517;SDS011;60540;51.178;6.738;2023-08-30T09:48:13;5.07;;;2.67;;
72517;SDS011;60540;51.178;6.738;2023-08-30T09:50:40;4.97;;;2.78;;
72517;SDS011;60540;51.178;6.738;2023-08-30T09:53:07;7.22;;;2.70;;
72517;SDS011;60540;51.178;6.738;2023-08-30T09:55:35;7.38;;;2.92;;
72517;SDS011;60540;51.178;6.738;2023-08-30T09:58:01;6.10;;;2.20;;
72517;SDS011;60540;51.178;6.738;2023-08-30T10:00:30;5.72;;;2.75;;
72517;SDS011;60540;51.178;6.738;2023-08-30T10:02:57;4.13;;;2.10;;
72517;SDS011;60540;51.178;6.738;2023-08-30T10:05:24;3.80;;;1.90;;
72517;SDS011;60540;51.178;6.738;2023-08-30T10:07:52;6.32;;;2.80;;
72517;SDS011;60540;51.178;6.738;2023-08-30T10:10:19;6.78;;;2.70;;
72517;SDS011;60540;51.178;6.738;2023-08-30T10:12:46;4.40;;;2.08;;
72517;SDS011;60540;51.178;6.738;2023-08-30T10:15:12;4.90;;;2.53;;
72517;SDS011;60540;51.178;6.738;2023-08-30T10:17:38;4.45;;;2.45;;
72517;SDS011;60540;51.178;6.738;2023-08-30T10:20:07;4.78;;;2.70;;
72517;SDS011;60540;51.178;6.738;2023-08-30T10:22:36;4.68;;;2.67;;
72517;SDS011;60540;51.178;6.738;2023-08-30T10:25:04;7.78;;;2.83;;
72517;SDS011;60540;51.178;6.738;2023-08-30T10:27:33;4.25;;;2.03;;
72517;SDS011;60540;51.178;6.738;2023-08-30T10:30:03;4.55;;;2.00;;
72517;SDS011;60540;51.178;6.738;2023-08-30T10:32:30;4.55;;;2.05;;
72517;SDS011;60540;51.178;6.738;2023-08-30T10:35:00;4.85;;;1.83;;
72517;SDS011;60540;51.178;6.738;2023-08-30T10:37:26;3.55;;;1.80;;
72517;SDS011;60540;51.178;6.738;2023-08-30T10:39:53;5.63;;;2.00;;
72517;SDS011;60540;51.178;6.738;2023-08-30T10:42:24;6.90;;;2.70;;
72517;SDS011;60540;51.178;6.738;2023-08-30T10:44:57;3.70;;;2.10;;
72517;SDS011;60540;51.178;6.738;2023-08-30T10:47:28;3.85;;;2.22;;
72517;SDS011;60540;51.178;6.738;2023-08-30T10:49:55;4.85;;;2.50;;
72517;SDS011;60540;51.178;6.738;2023-08-30T10:52:22;6.05;;;2.30;;
72517;SDS011;60540;51.178;6.738;2023-08-30T10:54:48;6.03;;;2.95;;
72517;SDS011;60540;51.178;6.738;2023-08-30T10:57:14;5.05;;;2.35;;
72517;SDS011;60540;51.178;6.738;2023-08-30T10:59:47;5.78;;;2.50;;
72517;SDS011;60540;51.178;6.738;2023-08-30T11:02:35;6.45;;;2.78;;
72517;SDS011;60540;51.178;6.738;2023-08-30T11:05:01;4.63;;;2.17;;
72517;SDS011;60540;51.178;6.738;2023-08-30T11:07:29;5.18;;;2.50;;
72517;SDS011;60540;51.178;6.738;2023-08-30T11:09:55;6.28;;;2.53;;
72517;SDS011;60540;51.178;6.738;2023-08-30T11:12:21;4.70;;;2.20;;
72517;SDS011;60540;51.178;6.738;2023-08-30T11:14:54;7.05;;;2.63;;
72517;SDS011;60540;51.178;6.738;2023-08-30T11:17:19;5.43;;;2.75;;
72517;SDS011;60540;51.178;6.738;2023-08-30T11:19:46;4.40;;;2.15;;
72517;SDS011;60540;51.178;6.738;2023-08-30T11:22:14;5.93;;;2.42;;
72517;SDS011;60540;51.178;6.738;2023-08-30T11:24:43;3.70;;;2.30;;
72517;SDS011;60540;51.178;6.738;2023-08-30T11:27:09;4.93;;;2.78;;
72517;SDS011;60540;51.178;6.738;2023-08-30T11:29:35;4.40;;;2.30;;
72517;SDS011;60540;51.178;6.738;2023-08-30T11:32:01;7.40;;;2.70;;
72517;SDS011;60540;51.178;6.738;2023-08-30T11:34:27;4.80;;;2.50;;
72517;SDS011;60540;51.178;6.738;2023-08-30T11:36:52;4.18;;;2.70;;
72517;SDS011;60540;51.178;6.738;2023-08-30T11:39:19;4.47;;;1.98;;
72517;SDS011;60540;51.178;6.738;2023-08-30T11:41:46;5.72;;;3.08;;
72517;SDS011;60540;51.178;6.738;2023-08-30T11:44:12;5.20;;;2.88;;
72517;SDS011;60540;51.178;6.738;2023-08-30T11:46:38;4.60;;;2.70;;
72517;SDS011;60540;51.178;6.738;2023-08-30T11:49:04;6.60;;;3.30;;
72517;SDS011;60540;51.178;6.738;2023-08-30T11:51:30;7.03;;;2.60;;
72517;SDS011;60540;51.178;6.738;2023-08-30T11:53:56;4.45;;;2.47;;
72517;SDS011;60540;51.178;6.738;2023-08-30T11:56:22;4.90;;;2.90;;
72517;SDS011;60540;51.178;6.738;2023-08-30T11:58:48;3.80;;;2.40;;
72517;SDS011;60540;51.178;6.738;2023-08-30T12:01:14;5.53;;;2.47;;
72517;SDS011;60540;51.178;6.738;2023-08-30T12:03:40;4.72;;;2.53;;
72517;SDS011;60540;51.178;6.738;2023-08-30T12:06:09;5.63;;;2.60;;
72517;SDS011;60540;51.178;6.738;2023-08-30T12:08:36;4.57;;;2.58;;
72517;SDS011;60540;51.178;6.738;2023-08-30T12:11:02;5.47;;;2.80;;
72517;SDS011;60540;51.178;6.738;2023-08-30T12:13:29;4.22;;;2.53;;
72517;SDS011;60540;51.178;6.738;2023-08-30T12:15:58;4.25;;;2.30;;
72517;SDS011;60540;51.178;6.738;2023-08-30T12:20:59;5.20;;;2.63;;
72517;SDS011;60540;51.178;6.738;2023-08-30T12:23:27;4.25;;;2.33;;
72517;SDS011;60540;51.178;6.738;2023-08-30T12:28:27;4.25;;;2.50;;
72517;SDS011;60540;51.178;6.738;2023-08-30T12:30:54;5.43;;;2.80;;
72517;SDS011;60540;51.178;6.738;2023-08-30T12:33:20;4.97;;;2.80;;
72517;SDS011;60540;51.178;6.738;2023-08-30T12:35:46;4.25;;;2.22;;
72517;SDS011;60540;51.178;6.738;2023-08-30T12:38:12;8.63;;;2.47;;
72517;SDS011;60540;51.178;6.738;2023-08-30T12:41:00;4.93;;;2.47;;
72517;SDS011;60540;51.178;6.738;2023-08-30T12:43:26;6.32;;;2.55;;
72517;SDS011;60540;51.178;6.738;2023-08-30T12:45:52;4.75;;;2.80;;
72517;SDS011;60540;51.178;6.738;2023-08-30T12:48:18;5.22;;;2.58;;
72517;SDS011;60540;51.178;6.738;2023-08-30T12:50:44;4.57;;;2.45;;
72517;SDS011;60540;51.178;6.738;2023-08-30T12:53:11;4.60;;;2.30;;
72517;SDS011;60540;51.178;6.738;2023-08-30T12:55:37;3.50;;;1.98;;
72517;SDS011;60540;51.178;6.738;2023-08-30T12:58:06;6.10;;;1.80;;
72517;SDS011;60540;51.178;6.738;2023-08-30T13:00:32;3.38;;;1.88;;
72517;SDS011;60540;51.178;6.738;2023-08-30T13:02:59;3.30;;;1.90;;
72517;SDS011;60540;51.178;6.738;2023-08-30T13:05:24;4.20;;;1.70;;
72517;SDS011;60540;51.178;6.738;2023-08-30T13:07:51;3.70;;;2.08;;
72517;SDS011;60540;51.178;6.738;2023-08-30T13:10:16;3.25;;;1.70;;
72517;SDS011;60540;51.178;6.738;2023-08-30T13:12:42;3.60;;;2.00;;
72517;SDS011;60540;51.178;6.738;2023-08-30T13:15:08;4.20;;;2.33;;
72517;SDS011;60540;51.178;6.738;2023-08-30T13:17:34;3.60;;;1.73;;
72517;SDS011;60540;51.178;6.738;2023-08-30T13:20:00;3.17;;;1.70;;
72517;SDS011;60540;51.178;6.738;2023-08-30T13:22:27;4.38;;;1.65;;
72517;SDS011;60540;51.178;6.738;2023-08-30T13:24:53;3.55;;;1.70;;
72517;SDS011;60540;51.178;6.738;2023-08-30T13:27:19;3.08;;;1.67;;
72517;SDS011;60540;51.178;6.738;2023-08-30T13:29:45;3.33;;;1.55;;
72517;SDS011;60540;51.178;6.738;2023-08-30T13:32:11;3.00;;;1.52;;
72517;SDS011;60540;51.178;6.738;2023-08-30T13:34:37;2.67;;;1.40;;
72517;SDS011;60540;51.178;6.738;2023-08-30T13:37:04;3.60;;;1.95;;
72517;SDS011;60540;51.178;6.738;2023-08-30T13:39:30;2.65;;;1.50;;
72517;SDS011;60540;51.178;6.738;2023-08-30T13:41:56;2.47;;;1.52;;
72517;SDS011;60540;51.178;6.738;2023-08-30T13:44:21;2.28;;;1.42;;
72517;SDS011;60540;51.178;6.738;2023-08-30T13:46:47;2.90;;;1.30;;
72517;SDS011;60540;51.178;6.738;2023-08-30T13:49:14;2.70;;;1.55;;
72517;SDS011;60540;51.178;6.738;2023-08-30T13:51:41;3.05;;;1.48;;
72517;SDS011;60540;51.178;6.738;2023-08-30T13:54:07;3.42;;;1.45;;
72517;SDS011;60540;51.178;6.738;2023-08-30T13:56:33;2.70;;;1.60;;
72517;SDS011;60540;51.178;6.738;2023-08-30T13:58:58;4.72;;;1.60;;
72517;SDS011;60540;51.178;6.738;2023-08-30T14:01:24;3.20;;;1.77;;
72517;SDS011;60540;51.178;6.738;2023-08-30T14:03:50;3.78;;;1.63;;
72517;SDS011;60540;51.178;6.738;2023-08-30T14:06:16;3.95;;;1.80;;
72517;SDS011;60540;51.178;6.738;2023-08-30T14:08:42;3.10;;;1.75;;
72517;SDS011;60540;51.178;6.738;2023-08-30T14:11:08;3.13;;;1.60;;
72517;SDS011;60540;51.178;6.738;2023-08-30T14:13:34;3.60;;;1.83;;
72517;SDS011;60540;51.178;6.738;2023-08-30T14:16:00;3.33;;;1.63;;
72517;SDS011;60540;51.178;6.738;2023-08-30T14:18:26;4.20;;;1.70;;
72517;SDS011;60540;51.178;6.738;2023-08-30T14:20:55;3.13;;;1.50;;
72517;SDS011;60540;51.178;6.738;2023-08-30T14:23:22;3.28;;;1.65;;
72517;SDS011;60540;51.178;6.738;2023-08-30T14:26:02;4.35;;;2.05;;
72517;SDS011;60540;51.178;6.738;2023-08-30T14:28:34;3.03;;;1.73;;
72517;SDS011;60540;51.178;6.738;2023-08-30T14:31:00;3.55;;;1.80;;
72517;SDS011;60540;51.178;6.738;2023-08-30T14:33:26;3.78;;;1.85;;
72517;SDS011;60540;51.178;6.738;2023-08-30T14:35:52;4.63;;;2.33;;
72517;SDS011;60540;51.178;6.738;2023-08-30T14:38:18;3.50;;;1.80;;
72517;SDS011;60540;51.178;6.738;2023-08-30T14:40:43;5.32;;;2.13;;
72517;SDS011;60540;51.178;6.738;2023-08-30T14:43:09;4.30;;;2.03;;
72517;SDS011;60540;51.178;6.738;2023-08-30T14:45:35;4.25;;;2.53;;
72517;SDS011;60540;51.178;6.738;2023-08-30T14:48:00;4.82;;;2.45;;
72517;SDS011;60540;51.178;6.738;2023-08-30T14:50:26;4.10;;;2.20;;
72517;SDS011;60540;51.178;6.738;2023-08-30T14:52:52;5.60;;;2.20;;
72517;SDS011;60540;51.178;6.738;2023-08-30T14:55:20;5.35;;;2.75;;
72517;SDS011;60540;51.178;6.738;2023-08-30T14:57:46;5.03;;;2.53;;